createdAt,value
2022-08-12T00:00:20.301Z,4.33
2022-08-12T00:03:26.503Z,3.97
2022-08-12T00:06:32.939Z,4.07
2022-08-12T00:09:40.427Z,3.60
2022-08-12T00:12:46.632Z,3.90
2022-08-12T00:15:54.652Z,4.10
2022-08-12T00:19:00.792Z,4.00
2022-08-12T00:22:06.574Z,4.93
2022-08-12T00:25:18.054Z,4.07
2022-08-12T00:28:24.253Z,3.53
2022-08-12T00:31:31.562Z,3.43
2022-08-12T00:34:37.741Z,3.80
2022-08-12T00:37:43.870Z,3.97
2022-08-12T00:40:51.060Z,4.57
2022-08-12T00:43:39.668Z,4.20
2022-08-12T00:46:37.213Z,4.20
2022-08-12T00:49:26.832Z,4.67
2022-08-12T00:52:15.338Z,3.67
2022-08-12T00:55:06.004Z,4.10
2022-08-12T00:57:55.958Z,4.00
2022-08-12T01:00:45.030Z,4.10
2022-08-12T01:03:49.883Z,3.93
2022-08-12T01:06:56.151Z,4.57
2022-08-12T01:10:02.217Z,4.80
2022-08-12T01:12:51.230Z,3.80
2022-08-12T01:15:41.316Z,3.87
2022-08-12T01:18:33.635Z,3.87
2022-08-12T01:21:39.989Z,3.97
2022-08-12T01:24:48.959Z,3.83
2022-08-12T01:27:40.480Z,4.03
2022-08-12T01:30:33.724Z,4.03
2022-08-12T01:33:23.164Z,4.03
2022-08-12T01:36:12.907Z,3.80
2022-08-12T01:39:01.851Z,4.13
2022-08-12T01:41:55.372Z,4.13
2022-08-12T01:44:44.796Z,4.40
2022-08-12T01:47:42.901Z,4.20
2022-08-12T01:50:38.135Z,4.43
2022-08-12T01:53:50.295Z,4.13
2022-08-12T01:56:49.004Z,3.80
2022-08-12T01:59:50.661Z,4.30
2022-08-12T02:02:44.609Z,4.27
2022-08-12T02:05:59.488Z,3.97
2022-08-12T02:09:08.807Z,4.47
2022-08-12T02:12:06.242Z,4.40
2022-08-12T02:15:06.187Z,4.57
2022-08-12T02:18:05.395Z,4.10
2022-08-12T02:21:02.010Z,4.60
2022-08-12T02:23:50.784Z,4.00
2022-08-12T02:26:41.143Z,4.13
2022-08-12T02:29:30.176Z,4.60
2022-08-12T02:32:20.408Z,4.03
2022-08-12T02:35:11.381Z,4.17
2022-08-12T02:38:01.335Z,4.30
2022-08-12T02:40:54.571Z,4.33
2022-08-12T02:43:49.827Z,4.43
2022-08-12T02:46:39.190Z,4.03
2022-08-12T02:49:33.037Z,4.07
2022-08-12T02:52:23.404Z,4.50
2022-08-12T02:55:28.741Z,4.47
2022-08-12T02:58:32.878Z,4.50
2022-08-12T03:01:28.534Z,3.90
2022-08-12T03:04:27.512Z,4.70
2022-08-12T03:07:21.388Z,4.53
2022-08-12T03:10:16.207Z,4.60
2022-08-12T03:13:08.145Z,4.00
2022-08-12T03:15:56.855Z,4.43
2022-08-12T03:18:46.430Z,5.10
2022-08-12T03:21:52.925Z,4.47
2022-08-12T03:24:47.303Z,4.83
2022-08-12T03:27:40.425Z,3.97
2022-08-12T03:30:31.380Z,4.43
2022-08-12T03:33:20.202Z,4.13
2022-08-12T03:36:10.562Z,4.10
2022-08-12T03:39:35.376Z,4.77
2022-08-12T03:42:40.632Z,4.60
2022-08-12T03:45:51.892Z,4.70
2022-08-12T03:48:58.739Z,4.10
2022-08-12T03:52:05.475Z,4.77
2022-08-12T03:55:11.721Z,5.20
2022-08-12T03:58:20.302Z,4.50
2022-08-12T04:01:08.870Z,4.70
2022-08-12T04:03:58.023Z,4.57
2022-08-12T04:06:46.593Z,4.67
2022-08-12T04:09:35.888Z,4.90
2022-08-12T04:12:45.195Z,4.20
2022-08-12T04:15:35.205Z,4.77
2022-08-12T04:18:24.160Z,4.20
2022-08-12T04:21:12.748Z,4.37
2022-08-12T04:24:02.268Z,3.87
2022-08-12T04:26:50.865Z,4.70
2022-08-12T04:30:16.340Z,4.43
2022-08-12T04:32:51.101Z,3.93
2022-08-12T04:35:40.641Z,4.17
2022-08-12T04:38:30.933Z,4.30
2022-08-12T04:41:20.882Z,4.63
2022-08-12T04:44:10.114Z,5.10
2022-08-12T04:46:58.705Z,4.97
2022-08-12T04:49:49.211Z,4.60
2022-08-12T04:52:37.916Z,4.03
2022-08-12T04:55:26.602Z,4.63
2022-08-12T04:58:15.207Z,4.57
2022-08-12T05:01:18.436Z,4.50
2022-08-12T05:04:08.559Z,4.30
2022-08-12T05:06:58.486Z,4.63
2022-08-12T05:09:58.908Z,5.03
2022-08-12T05:12:53.352Z,4.77
2022-08-12T05:16:02.613Z,4.90
2022-08-12T05:18:51.115Z,4.23
2022-08-12T05:21:39.675Z,4.00
2022-08-12T05:24:31.878Z,4.33
2022-08-12T05:27:22.579Z,4.00
2022-08-12T05:30:12.573Z,4.03
2022-08-12T05:33:05.141Z,3.47
2022-08-12T05:35:53.847Z,4.10
2022-08-12T05:38:57.976Z,3.60
2022-08-12T05:41:47.870Z,3.90
2022-08-12T05:44:36.702Z,3.87
2022-08-12T05:47:36.708Z,3.80
2022-08-12T05:50:35.580Z,3.90
2022-08-12T05:53:24.240Z,3.37
2022-08-12T05:56:23.834Z,4.27
2022-08-12T05:59:14.169Z,3.43
2022-08-12T06:02:09.837Z,3.67
2022-08-12T06:05:02.341Z,3.57
2022-08-12T06:08:02.309Z,3.60
2022-08-12T06:10:51.481Z,3.90
2022-08-12T06:13:54.077Z,3.57
2022-08-12T06:16:46.267Z,3.80
2022-08-12T06:20:27.993Z,3.40
2022-08-12T06:22:44.801Z,3.87
2022-08-12T06:25:34.475Z,3.50
2022-08-12T06:28:23.096Z,3.30
2022-08-12T06:31:26.226Z,4.67
2022-08-12T06:35:26.967Z,4.33
2022-08-12T06:37:25.812Z,3.50
2022-08-12T06:40:15.074Z,3.43
2022-08-12T06:43:02.712Z,3.37
2022-08-12T06:45:51.288Z,4.00
2022-08-12T06:48:42.680Z,3.40
2022-08-12T06:51:33.109Z,3.43
2022-08-12T06:54:30.799Z,4.40
2022-08-12T06:58:01.926Z,3.13
2022-08-12T07:00:33.029Z,3.10
2022-08-12T07:03:27.512Z,3.43
2022-08-12T07:06:16.425Z,3.60
2022-08-12T07:09:07.073Z,3.73
2022-08-12T07:11:55.637Z,2.80
2022-08-12T07:14:48.452Z,3.23
2022-08-12T07:17:38.238Z,3.13
2022-08-12T07:20:51.341Z,3.50
2022-08-12T07:23:39.377Z,3.30
2022-08-12T07:26:29.353Z,3.30
2022-08-12T07:29:18.691Z,3.40
2022-08-12T07:32:07.603Z,3.43
2022-08-12T07:34:56.194Z,3.30
2022-08-12T07:37:45.153Z,3.13
2022-08-12T07:40:33.874Z,2.60
2022-08-12T07:43:24.310Z,3.00
2022-08-12T07:46:16.292Z,3.10
2022-08-12T07:49:06.935Z,2.77
2022-08-12T07:51:55.484Z,3.20
2022-08-12T07:54:44.333Z,3.60
2022-08-12T07:57:33.445Z,3.40
2022-08-12T08:00:23.676Z,3.37
2022-08-12T08:03:13.288Z,3.57
2022-08-12T08:06:01.807Z,2.80
2022-08-12T08:08:50.389Z,3.10
2022-08-12T08:11:56.590Z,3.40
2022-08-12T08:14:46.410Z,2.70
2022-08-12T08:17:39.908Z,3.17
2022-08-12T08:20:30.226Z,2.80
2022-08-12T08:23:19.668Z,2.87
2022-08-12T08:26:10.615Z,3.10
2022-08-12T08:28:59.528Z,2.60
2022-08-12T08:31:54.193Z,2.70
2022-08-12T08:34:54.500Z,2.53
2022-08-12T08:37:44.754Z,2.53
2022-08-12T08:40:54.614Z,2.47
2022-08-12T08:43:44.714Z,2.23
2022-08-12T08:46:37.523Z,2.40
2022-08-12T08:49:27.031Z,2.30
2022-08-12T08:52:38.940Z,2.90
2022-08-12T08:55:37.444Z,2.60
2022-08-12T08:58:34.317Z,2.60
2022-08-12T09:01:22.871Z,2.33
2022-08-12T09:05:08.252Z,2.53
2022-08-12T09:07:51.598Z,2.57
2022-08-12T09:10:32.588Z,2.47
2022-08-12T09:14:10.630Z,2.37
2022-08-12T09:19:52.413Z,2.80
2022-08-12T09:22:49.012Z,2.47
2022-08-12T09:25:39.418Z,2.50
2022-08-12T09:28:32.879Z,2.20
2022-08-12T09:32:03.802Z,2.60
2022-08-12T09:34:33.276Z,2.40
2022-08-12T09:37:28.346Z,2.27
2022-08-12T09:40:57.611Z,2.10
2022-08-12T09:44:05.140Z,2.70
2022-08-12T09:46:54.148Z,2.20
2022-08-12T09:49:44.531Z,2.20
2022-08-12T09:52:33.155Z,2.40
2022-08-12T09:56:07.329Z,2.40
2022-08-12T09:58:58.849Z,2.47
2022-08-12T10:02:42.009Z,2.20
2022-08-12T10:04:57.808Z,2.70
2022-08-12T10:07:46.341Z,2.47
2022-08-12T10:10:54.954Z,2.67
2022-08-12T10:13:45.057Z,2.60
2022-08-12T10:16:39.307Z,2.67
2022-08-12T10:19:36.715Z,2.63
2022-08-12T10:22:40.487Z,2.97
2022-08-12T10:26:10.052Z,2.60
2022-08-12T10:30:01.789Z,2.67
2022-08-12T10:32:45.278Z,2.60
2022-08-12T10:35:37.854Z,2.63
2022-08-12T10:38:39.257Z,2.60
2022-08-12T10:41:57.242Z,2.50
2022-08-12T10:44:48.817Z,2.60
2022-08-12T10:48:20.585Z,2.37
2022-08-12T10:50:58.631Z,2.30
2022-08-12T10:53:52.707Z,2.40
2022-08-12T10:56:45.287Z,2.33
2022-08-12T11:00:29.169Z,2.57
2022-08-12T11:04:19.436Z,2.43
2022-08-12T11:07:09.834Z,2.33
2022-08-12T11:09:11.604Z,2.20
2022-08-12T11:12:36.727Z,2.20
2022-08-12T11:15:18.595Z,2.37
2022-08-12T11:18:11.878Z,2.37
2022-08-12T11:21:07.025Z,2.20
2022-08-12T11:23:55.606Z,2.80
2022-08-12T11:26:44.387Z,2.33
2022-08-12T11:30:01.739Z,2.20
2022-08-12T11:32:42.795Z,2.03
2022-08-12T11:35:38.899Z,2.50
2022-08-12T11:38:32.999Z,2.50
2022-08-12T11:41:31.018Z,3.40
2022-08-12T11:44:35.063Z,2.13
2022-08-12T11:47:25.445Z,2.00
2022-08-12T11:50:19.604Z,2.03
2022-08-12T11:53:56.340Z,2.20
2022-08-12T11:56:18.412Z,2.47
2022-08-12T12:02:20.257Z,1.93
2022-08-12T12:05:10.007Z,2.67
2022-08-12T12:08:37.945Z,2.40
2022-08-12T12:11:09.338Z,2.57
2022-08-12T12:14:08.101Z,2.03
2022-08-12T12:17:00.234Z,2.10
2022-08-12T12:19:48.916Z,2.43
2022-08-12T12:22:37.946Z,2.20
2022-08-12T12:25:59.636Z,2.10
2022-08-12T12:28:39.690Z,2.03
2022-08-12T12:32:06.933Z,2.10
2022-08-12T12:34:37.071Z,2.10
2022-08-12T12:38:04.251Z,2.20
2022-08-12T12:40:39.828Z,2.30
2022-08-12T12:43:42.873Z,1.90
2022-08-12T12:46:34.727Z,2.20
2022-08-12T12:49:26.194Z,2.17
2022-08-12T12:52:18.676Z,2.13
2022-08-12T12:55:10.981Z,2.13
2022-08-12T12:58:04.812Z,2.33
2022-08-12T13:00:55.257Z,2.50
2022-08-12T13:03:48.856Z,2.50
2022-08-12T13:09:27.152Z,1.80
2022-08-12T13:12:25.339Z,2.50
2022-08-12T13:15:24.841Z,2.00
2022-08-12T13:18:28.682Z,2.20
2022-08-12T13:21:33.208Z,2.10
2022-08-12T13:24:25.653Z,2.10
2022-08-12T13:27:20.913Z,2.03
2022-08-12T13:30:12.067Z,1.80
2022-08-12T13:33:00.806Z,2.13
2022-08-12T13:36:05.563Z,2.30
2022-08-12T13:38:57.931Z,2.10
2022-08-12T13:41:46.616Z,2.00
2022-08-12T13:44:38.313Z,2.07
2022-08-12T13:47:28.659Z,1.90
2022-08-12T13:50:17.364Z,2.03
2022-08-12T13:53:23.803Z,2.10
2022-08-12T13:56:16.019Z,1.87
2022-08-12T13:59:08.117Z,3.70
2022-08-12T14:01:57.471Z,1.77
2022-08-12T14:04:55.922Z,2.40
2022-08-12T14:08:01.484Z,2.00
2022-08-12T14:10:53.329Z,1.80
2022-08-12T14:14:03.541Z,2.20
2022-08-12T14:16:52.284Z,1.87
2022-08-12T14:20:02.122Z,1.70
2022-08-12T14:22:51.882Z,1.80
2022-08-12T14:25:43.369Z,2.10
2022-08-12T14:28:35.015Z,1.90
2022-08-12T14:31:31.433Z,1.70
2022-08-12T14:34:21.722Z,1.80
2022-08-12T14:37:55.973Z,2.47
2022-08-12T14:40:27.531Z,1.80
2022-08-12T14:43:16.893Z,1.77
2022-08-12T14:46:06.501Z,2.00
2022-08-12T14:48:58.789Z,2.63
2022-08-12T14:53:50.780Z,2.10
2022-08-12T14:58:26.952Z,1.80
2022-08-12T15:01:33.004Z,1.80
2022-08-12T15:04:28.686Z,1.67
2022-08-12T15:07:33.706Z,1.67
2022-08-12T15:10:32.270Z,1.70
2022-08-12T15:13:23.592Z,1.90
2022-08-12T15:16:12.719Z,2.10
2022-08-12T15:19:01.434Z,1.90
2022-08-12T15:22:35.352Z,1.70
2022-08-12T15:25:20.131Z,2.00
2022-08-12T15:28:20.402Z,1.60
2022-08-12T15:31:27.725Z,1.80
2022-08-12T15:34:16.689Z,1.50
2022-08-12T15:37:06.092Z,1.77
2022-08-12T15:40:01.110Z,2.03
2022-08-12T15:42:50.765Z,1.70
2022-08-12T15:45:44.506Z,2.00
2022-08-12T15:48:37.443Z,1.57
2022-08-12T15:51:57.142Z,1.80
2022-08-12T15:54:44.808Z,1.80
2022-08-12T15:57:35.606Z,1.50
2022-08-12T16:00:32.945Z,1.63
2022-08-12T16:03:28.528Z,1.60
2022-08-12T16:10:05.129Z,1.60
2022-08-12T16:12:58.687Z,1.70
2022-08-12T16:15:51.115Z,1.73
2022-08-12T16:18:52.690Z,2.17
2022-08-12T16:21:51.556Z,1.93
2022-08-12T16:24:47.084Z,1.73
2022-08-12T16:27:41.878Z,1.73
2022-08-12T16:30:35.055Z,1.93
2022-08-12T16:33:35.911Z,1.97
2022-08-12T16:36:45.947Z,1.73
2022-08-12T16:40:00.404Z,1.57
2022-08-12T16:42:53.940Z,1.70
2022-08-12T16:46:05.399Z,1.60
2022-08-12T16:49:04.342Z,1.70
2022-08-12T16:51:58.021Z,1.60
2022-08-12T16:54:47.949Z,2.20
2022-08-12T16:57:37.586Z,1.90
2022-08-12T17:00:26.281Z,1.97
2022-08-12T17:03:23.891Z,2.07
2022-08-12T17:06:19.544Z,1.80
2022-08-12T17:09:17.826Z,1.83
2022-08-12T17:12:07.653Z,1.80
2022-08-12T17:14:56.184Z,1.80
2022-08-12T17:17:45.329Z,2.30
2022-08-12T17:20:39.653Z,1.87
2022-08-12T17:23:33.222Z,2.23
2022-08-12T17:26:37.313Z,1.87
2022-08-12T17:30:01.283Z,1.70
2022-08-12T17:32:37.081Z,1.73
2022-08-12T17:35:36.685Z,1.67
2022-08-12T17:38:29.427Z,1.47
2022-08-12T17:41:23.184Z,2.03
2022-08-12T17:44:27.685Z,1.77
2022-08-12T17:47:18.695Z,1.80
2022-08-12T17:50:19.668Z,1.93
2022-08-12T17:53:10.694Z,1.93
2022-08-12T17:56:02.543Z,6.27
2022-08-12T17:58:58.687Z,3.07
2022-08-12T18:01:48.487Z,1.90
2022-08-12T18:05:04.512Z,1.60
2022-08-12T18:07:53.481Z,9.60
2022-08-12T18:11:11.929Z,2.60
2022-08-12T18:14:02.927Z,2.30
2022-08-12T18:16:51.952Z,1.50
2022-08-12T18:20:07.076Z,1.80
2022-08-12T18:22:55.829Z,1.60
2022-08-12T18:26:16.719Z,1.70
2022-08-12T18:29:10.598Z,1.97
2022-08-12T18:32:17.936Z,1.50
2022-08-12T18:35:10.909Z,1.90
2022-08-12T18:38:08.038Z,1.80
2022-08-12T18:41:21.042Z,2.30
2022-08-12T18:44:12.835Z,3.00
2022-08-12T18:47:02.303Z,1.73
2022-08-12T18:49:50.902Z,1.60
2022-08-12T18:52:42.982Z,1.77
2022-08-12T18:55:37.977Z,2.10
2022-08-12T18:58:30.187Z,1.73
2022-08-12T19:02:19.598Z,1.70
2022-08-12T19:04:31.689Z,1.90
2022-08-12T19:07:21.917Z,1.87
2022-08-12T19:10:11.393Z,2.03
2022-08-12T19:13:23.029Z,2.17
2022-08-12T19:16:13.178Z,2.93
2022-08-12T19:19:06.516Z,2.63
2022-08-12T19:21:56.712Z,2.73
2022-08-12T19:25:02.944Z,2.50
2022-08-12T19:27:55.862Z,2.30
2022-08-12T19:31:03.975Z,3.03
2022-08-12T19:34:25.500Z,2.80
2022-08-12T19:37:07.372Z,2.00
2022-08-12T19:40:07.947Z,2.30
2022-08-12T19:43:01.823Z,2.17
2022-08-12T19:45:56.349Z,2.53
2022-08-12T19:48:45.563Z,2.57
2022-08-12T19:51:49.560Z,2.50
2022-08-12T19:54:44.061Z,2.63
2022-08-12T19:58:01.489Z,2.03
2022-08-12T20:00:54.784Z,2.60
2022-08-12T20:03:57.368Z,2.33
2022-08-12T20:06:51.458Z,2.43
2022-08-12T20:09:42.985Z,2.20
2022-08-12T20:12:44.702Z,2.13
2022-08-12T20:15:45.018Z,2.20
2022-08-12T20:18:53.442Z,1.93
2022-08-12T20:21:43.620Z,1.90
2022-08-12T20:24:37.570Z,2.30
2022-08-12T20:28:03.106Z,2.63
2022-08-12T20:30:53.595Z,2.50
2022-08-12T20:33:56.218Z,2.30
2022-08-12T20:36:45.618Z,2.30
2022-08-12T20:39:53.667Z,2.60
2022-08-12T20:42:45.535Z,2.30
2022-08-12T20:45:50.705Z,2.20
2022-08-12T20:48:46.967Z,2.20
2022-08-12T20:51:55.800Z,2.20
2022-08-12T20:54:48.374Z,1.80
2022-08-12T20:57:37.671Z,2.10
2022-08-12T21:00:28.684Z,2.33
2022-08-12T21:03:34.576Z,2.10
2022-08-12T21:06:41.253Z,2.07
2022-08-12T21:09:31.746Z,2.47
2022-08-12T21:12:37.521Z,2.20
2022-08-12T21:15:53.287Z,2.43
2022-08-12T21:18:37.608Z,2.00
2022-08-12T21:21:40.680Z,2.27
2022-08-12T21:24:36.829Z,2.80
2022-08-12T21:27:59.553Z,2.50
2022-08-12T21:30:54.739Z,2.07
2022-08-12T21:34:07.165Z,2.10
2022-08-12T21:37:01.655Z,2.20
2022-08-12T21:40:13.286Z,2.10
2022-08-12T21:43:05.394Z,2.70
2022-08-12T21:46:01.386Z,2.27
2022-08-12T21:48:54.460Z,2.27
2022-08-12T21:51:50.643Z,2.43
2022-08-12T21:54:42.750Z,2.33
2022-08-12T21:57:36.351Z,2.20
2022-08-12T22:00:39.476Z,2.23
2022-08-12T22:04:02.879Z,2.30
2022-08-12T22:06:55.341Z,2.10
2022-08-12T22:09:47.882Z,1.90
2022-08-12T22:12:46.415Z,2.07
2022-08-12T22:15:35.033Z,2.00
2022-08-12T22:18:23.863Z,2.00
2022-08-12T22:21:17.733Z,1.93
2022-08-12T22:24:09.641Z,2.17
2022-08-12T22:27:31.695Z,2.07
2022-08-12T22:30:39.266Z,2.50
2022-08-12T22:33:27.980Z,2.60
2022-08-12T22:36:21.914Z,2.10
2022-08-12T22:39:17.403Z,2.67
2022-08-12T22:42:24.271Z,2.20
2022-08-12T22:45:30.454Z,2.07
2022-08-12T22:48:26.688Z,2.13
2022-08-12T22:51:19.224Z,2.00
2022-08-12T22:54:10.129Z,2.10
2022-08-12T22:57:18.941Z,2.17
2022-08-12T23:00:27.044Z,2.30
2022-08-12T23:03:49.544Z,2.30
2022-08-12T23:06:26.937Z,3.13
2022-08-12T23:09:16.743Z,2.00
2022-08-12T23:12:05.895Z,2.20
2022-08-12T23:14:54.821Z,2.40
2022-08-12T23:17:45.896Z,2.53
2022-08-12T23:20:34.614Z,2.50
2022-08-12T23:23:23.226Z,2.20
2022-08-12T23:26:12.298Z,2.60
2022-08-12T23:29:26.002Z,2.37
2022-08-12T23:32:36.664Z,2.70
2022-08-12T23:35:25.624Z,2.63
2022-08-12T23:38:34.428Z,2.33
2022-08-12T23:41:23.901Z,1.90
2022-08-12T23:44:12.599Z,2.53
2022-08-12T23:47:04.388Z,3.07
2022-08-12T23:49:58.410Z,2.70
2022-08-12T23:52:49.171Z,2.67
2022-08-12T23:55:40.896Z,2.70
2022-08-12T23:58:31.159Z,2.60
